Time;durP1;ratioP1;P1;durP2;ratioP2;P2;SDS_P1;SDS_P2;PMS_P1;PMS_P2;Temp;Humidity;BMP_temperature;BMP_pressure;BME280_temperature;BME280_humidity;BME280_pressure;Samples;Min_cycle;Max_cycle;Signal;HPM_P1;HPM_P2
2022/09/02 00:01:22;;;;;;;16.93;6.20;;;;;;;7.41;100.00;98532.70;1758970;80;20881;-88
2022/09/02 00:03:48;;;;;;;11.57;6.28;;;;;;;7.34;100.00;98526.66;1757198;80;21013;-82
2022/09/02 00:06:14;;;;;;;15.15;6.80;;;;;;;7.26;100.00;98529.77;1775089;80;20943;-89
2022/09/02 00:08:40;;;;;;;13.78;6.53;;;;;;;7.19;100.00;98536.69;1731747;82;20963;-82
2022/09/02 00:11:07;;;;;;;13.25;5.90;;;;;;;7.15;100.00;98530.67;1711709;82;22227;-82
2022/09/02 00:13:35;;;;;;;10.20;5.97;;;;;;;7.14;100.00;98530.39;1739536;82;21000;-81
2022/09/02 00:16:02;;;;;;;11.78;6.03;;;;;;;7.12;100.00;98535.21;1747453;79;22092;-89
2022/09/02 00:18:28;;;;;;;10.75;5.22;;;;;;;7.08;100.00;98529.48;1763365;79;21018;-89
2022/09/02 00:20:54;;;;;;;11.22;5.37;;;;;;;7.05;100.00;98528.63;1732345;80;20892;-82
2022/09/02 00:23:21;;;;;;;11.35;5.80;;;;;;;6.98;100.00;98528.78;1734947;80;21717;-88
2022/09/02 00:25:47;;;;;;;11.53;6.40;;;;;;;6.97;100.00;98521.77;1733585;82;21013;-86
2022/09/02 00:28:14;;;;;;;9.50;5.12;;;;;;;6.99;100.00;98522.86;1756847;80;20913;-89
2022/09/02 00:30:40;;;;;;;14.20;7.17;;;;;;;6.99;100.00;98525.55;1735063;81;21109;-89
2022/09/02 00:33:06;;;;;;;11.33;5.35;;;;;;;7.00;100.00;98521.80;1725423;81;20952;-89
2022/09/02 00:35:32;;;;;;;14.70;6.05;;;;;;;7.03;100.00;98518.10;1761751;80;21223;-82
2022/09/02 00:37:58;;;;;;;12.65;6.05;;;;;;;7.06;100.00;98514.91;1736267;80;21007;-88
2022/09/02 00:40:25;;;;;;;10.28;5.10;;;;;;;7.07;100.00;98515.72;1747834;82;20886;-89
2022/09/02 00:42:51;;;;;;;14.90;5.35;;;;;;;7.03;100.00;98514.59;1729951;82;21048;-83
2022/09/02 00:45:17;;;;;;;13.13;6.25;;;;;;;7.01;100.00;98514.02;1727234;80;20891;-88
2022/09/02 00:47:49;;;;;;;13.28;6.10;;;;;;;6.92;100.00;98510.92;1756521;80;21306;-82
2022/09/02 00:50:13;;;;;;;7.20;4.55;;;;;;;6.88;100.00;98514.33;1743511;80;20970;-82
2022/09/02 00:52:43;;;;;;;10.85;4.78;;;;;;;6.85;100.00;98508.91;1733327;81;21017;-82
2022/09/02 00:55:19;;;;;;;10.03;5.17;;;;;;;6.85;100.00;98512.13;1758071;81;21004;-82
2022/09/02 00:57:49;;;;;;;9.70;5.03;;;;;;;6.81;100.00;98512.31;1756054;81;20965;-82
2022/09/02 01:00:18;;;;;;;12.00;4.62;;;;;;;6.78;100.00;98508.24;1732741;81;21227;-81
2022/09/02 01:02:57;;;;;;;5.85;4.28;;;;;;;6.75;100.00;98512.75;1722934;80;21006;-81
2022/09/02 01:05:28;;;;;;;13.53;4.95;;;;;;;6.72;100.00;98506.51;1746896;82;26932;-89
2022/09/02 01:07:55;;;;;;;9.00;5.53;;;;;;;6.71;100.00;98508.39;1751121;80;20975;-82
2022/09/02 01:10:25;;;;;;;12.63;5.62;;;;;;;6.70;100.00;98509.98;1743453;81;21404;-89
2022/09/02 01:13:05;;;;;;;10.03;5.58;;;;;;;6.64;100.00;98502.86;1737441;80;21152;-82
2022/09/02 01:15:35;;;;;;;11.63;5.17;;;;;;;6.63;100.00;98510.13;1724276;82;21010;-81
2022/09/02 01:18:01;;;;;;;9.63;5.12;;;;;;;6.59;100.00;98506.30;1733073;82;21018;-90
2022/09/02 01:20:27;;;;;;;10.50;5.90;;;;;;;6.57;100.00;98511.09;1715018;82;20874;-89
2022/09/02 01:22:53;;;;;;;13.08;5.47;;;;;;;6.50;100.00;98508.56;1757635;80;20978;-82
2022/09/02 01:25:22;;;;;;;9.38;6.03;;;;;;;6.49;100.00;98512.82;1765135;80;21301;-82
2022/09/02 01:27:49;;;;;;;;;;;;;;;6.49;100.00;98508.28;1760881;80;20946;-83
2022/09/02 01:30:22;;;;;;;8.25;4.10;;;;;;;6.50;100.00;98504.53;1757035;81;20418;-89
2022/09/02 01:32:48;;;;;;;7.85;4.28;;;;;;;6.49;100.00;98506.09;1758220;81;21021;-89
2022/09/02 01:35:14;;;;;;;8.93;4.80;;;;;;;6.48;100.00;98508.50;1755925;80;20878;-89
2022/09/02 01:37:41;;;;;;;9.55;4.53;;;;;;;6.44;100.00;98512.22;1755318;80;21321;-89
2022/09/02 01:40:13;;;;;;;8.10;4.90;;;;;;;6.44;100.00;98504.14;1757381;80;20980;-89
2022/09/02 01:42:39;;;;;;;9.50;5.05;;;;;;;6.44;100.00;98510.05;1735110;81;21043;-89
2022/09/02 01:45:07;;;;;;;10.88;5.05;;;;;;;6.38;100.00;98511.00;1757257;80;21021;-83
2022/09/02 01:47:33;;;;;;;7.72;4.15;;;;;;;6.33;100.00;98509.58;1752846;81;20986;-88
2022/09/02 01:49:59;;;;;;;8.88;4.65;;;;;;;6.28;100.00;98508.13;1765125;80;21084;-89
2022/09/02 01:52:27;;;;;;;7.67;4.33;;;;;;;6.25;100.00;98506.73;1764851;80;20844;-82
2022/09/02 01:54:54;;;;;;;9.33;5.47;;;;;;;6.22;100.00;98501.81;1766036;80;20986;-89
2022/09/02 01:57:22;;;;;;;10.85;4.37;;;;;;;6.19;100.00;98513.08;1771555;80;21542;-89
2022/09/02 01:59:47;;;;;;;6.97;3.67;;;;;;;6.16;100.00;98502.80;1765441;80;20967;-88
2022/09/02 02:02:13;;;;;;;7.35;4.58;;;;;;;6.17;100.00;98505.24;1751555;80;20940;-88
2022/09/02 02:04:39;;;;;;;7.92;4.97;;;;;;;6.18;100.00;98504.19;1754846;80;20906;-88
2022/09/02 02:07:05;;;;;;;13.98;5.40;;;;;;;6.21;100.00;98505.57;1758318;80;20909;-89
2022/09/02 02:09:31;;;;;;;14.78;7.58;;;;;;;6.22;100.00;98509.36;1756576;81;20989;-88
2022/09/02 02:11:57;;;;;;;12.37;6.10;;;;;;;6.23;100.00;98502.10;1732015;80;21052;-89
2022/09/02 02:14:23;;;;;;;12.82;5.55;;;;;;;6.25;100.00;98502.70;1762584;80;21204;-82
2022/09/02 02:16:49;;;;;;;12.25;5.15;;;;;;;6.27;100.00;98509.19;1743379;80;21610;-89
2022/09/02 02:19:15;;;;;;;11.12;4.62;;;;;;;6.18;100.00;98494.77;1761251;80;20913;-89
2022/09/02 02:21:41;;;;;;;9.55;5.78;;;;;;;6.22;100.00;98506.67;1762417;80;20889;-89
2022/09/02 02:24:07;;;;;;;11.80;4.95;;;;;;;6.18;100.00;98503.37;1756399;81;21056;-88
2022/09/02 02:26:34;;;;;;;9.15;4.35;;;;;;;6.15;100.00;98505.17;1762300;80;21153;-82
2022/09/02 02:29:00;;;;;;;11.00;5.12;;;;;;;6.11;100.00;98502.16;1760966;80;20981;-90
2022/09/02 02:31:26;;;;;;;8.45;5.75;;;;;;;6.09;100.00;98504.80;1759260;80;20953;-89
2022/09/02 02:33:52;;;;;;;6.47;4.05;;;;;;;6.00;100.00;98504.89;1764933;80;20989;-82
2022/09/02 02:36:18;;;;;;;9.10;5.80;;;;;;;5.92;100.00;98500.17;1744638;80;20878;-82
2022/09/02 02:38:45;;;;;;;8.55;4.92;;;;;;;5.88;100.00;98496.27;1756056;80;21888;-82
2022/09/02 02:41:13;;;;;;;7.72;3.67;;;;;;;5.87;100.00;98499.20;1757143;81;20985;-82
2022/09/02 02:43:39;;;;;;;6.42;3.72;;;;;;;5.85;100.00;98494.06;1728604;82;20970;-88
2022/09/02 02:46:05;;;;;;;8.68;4.12;;;;;;;5.85;100.00;98490.03;1756770;80;21405;-89
2022/09/02 02:48:33;;;;;;;7.03;3.77;;;;;;;5.86;100.00;98495.70;1745917;80;21073;-82
2022/09/02 02:50:59;;;;;;;7.50;4.05;;;;;;;5.83;100.00;98493.50;1732325;80;21306;-82
2022/09/02 02:53:28;;;;;;;8.03;3.95;;;;;;;5.84;100.00;98487.06;1741186;81;20881;-83
2022/09/02 02:55:53;;;;;;;6.58;4.10;;;;;;;5.86;100.00;98486.28;1740282;81;21032;-82
2022/09/02 02:58:18;;;;;;;9.23;4.67;;;;;;;5.88;100.00;98479.31;1756437;81;20815;-82
2022/09/02 03:00:45;;;;;;;9.70;3.98;;;;;;;5.86;100.00;98488.97;1756608;81;21092;-81
2022/09/02 03:03:11;;;;;;;7.20;4.10;;;;;;;5.86;100.00;98486.28;1748805;81;21121;-82
2022/09/02 03:05:37;;;;;;;5.50;3.55;;;;;;;5.89;100.00;98484.98;1743105;81;20942;-82
2022/09/02 03:08:05;;;;;;;6.62;3.50;;;;;;;5.85;100.00;98485.19;1729544;81;20979;-89
2022/09/02 03:10:32;;;;;;;7.90;3.65;;;;;;;5.83;100.00;98489.46;1734813;80;21037;-82
2022/09/02 03:12:59;;;;;;;7.47;4.65;;;;;;;5.81;100.00;98487.54;1756539;81;21424;-82
2022/09/02 03:15:25;;;;;;;6.45;3.33;;;;;;;5.81;100.00;98491.58;1746398;81;21031;-81
2022/09/02 03:17:51;;;;;;;9.75;4.08;;;;;;;5.84;100.00;98490.27;1749303;81;21446;-82
2022/09/02 03:20:18;;;;;;;6.92;3.20;;;;;;;5.78;100.00;98489.88;1759002;80;21025;-88
2022/09/02 03:22:46;;;;;;;7.85;3.37;;;;;;;5.76;100.00;98485.27;1737857;80;21014;-88
2022/09/02 03:25:15;;;;;;;7.72;3.35;;;;;;;5.74;100.00;98491.41;1768060;80;20970;-82
2022/09/02 03:27:41;;;;;;;4.17;2.87;;;;;;;5.71;100.00;98485.14;1704022;80;21109;-83
2022/09/02 03:30:09;;;;;;;10.95;3.77;;;;;;;5.70;100.00;98486.20;1753097;80;21424;-82
2022/09/02 03:32:35;;;;;;;6.78;4.10;;;;;;;5.71;100.00;98488.65;1765104;81;20960;-81
2022/09/02 03:35:03;;;;;;;7.85;4.33;;;;;;;5.72;100.00;98482.74;1741147;80;20876;-82
2022/09/02 03:37:29;;;;;;;10.07;4.23;;;;;;;5.73;100.00;98487.91;1733695;82;21035;-89
2022/09/02 03:39:55;;;;;;;6.67;3.90;;;;;;;5.73;100.00;98485.22;1779687;80;21166;-82
2022/09/02 03:42:22;;;;;;;7.58;4.70;;;;;;;5.70;100.00;98492.39;1728744;81;20942;-89
2022/09/02 03:44:48;;;;;;;7.50;4.72;;;;;;;5.65;100.00;98487.74;1757894;81;20990;-89
2022/09/02 03:47:16;;;;;;;8.85;4.22;;;;;;;5.62;100.00;98483.34;1756260;80;20850;-89
2022/09/02 03:49:41;;;;;;;7.25;3.42;;;;;;;5.61;100.00;98487.09;1756498;81;21016;-89
2022/09/02 03:52:07;;;;;;;6.87;3.47;;;;;;;5.57;100.00;98488.63;1756852;81;20970;-88
2022/09/02 03:54:33;;;;;;;7.83;5.03;;;;;;;5.53;100.00;98490.14;1756876;81;20952;-83
2022/09/02 03:56:59;;;;;;;9.38;4.65;;;;;;;5.49;100.00;98497.05;1757495;81;20965;-82
2022/09/02 03:59:25;;;;;;;10.10;5.17;;;;;;;5.47;100.00;98497.80;1739348;82;20891;-82
2022/09/02 04:01:51;;;;;;;9.78;4.90;;;;;;;5.45;100.00;98499.91;1756811;81;20873;-82
2022/09/02 04:04:18;;;;;;;8.10;4.72;;;;;;;5.45;100.00;98498.03;1763867;80;21012;-82
2022/09/02 04:06:44;;;;;;;18.05;7.85;;;;;;;5.45;100.00;98498.03;1735162;80;21037;-86
2022/09/02 04:09:10;;;;;;;7.42;4.53;;;;;;;5.48;100.00;98504.83;1770071;80;21085;-90
2022/09/02 04:11:41;;;;;;;8.40;4.55;;;;;;;5.51;100.00;98502.48;1747197;80;21588;-82
2022/09/02 04:14:05;;;;;;;9.63;5.08;;;;;;;5.52;100.00;98497.92;1756558;81;26037;-82
2022/09/02 04:16:31;;;;;;;9.63;5.58;;;;;;;5.49;100.00;98501.09;1718474;80;21012;-85
2022/09/02 04:18:57;;;;;;;13.65;6.35;;;;;;;5.48;100.00;98500.27;1707069;82;20863;-82
2022/09/02 04:21:24;;;;;;;12.82;5.67;;;;;;;5.50;100.00;98507.56;1744928;82;20977;-89
2022/09/02 04:23:51;;;;;;;9.63;5.20;;;;;;;5.49;100.00;98505.12;1745711;80;20990;-88
2022/09/02 04:26:17;;;;;;;13.78;6.67;;;;;;;5.53;100.00;98514.34;1751400;79;21407;-83
2022/09/02 04:28:43;;;;;;;12.70;5.28;;;;;;;5.55;100.00;98510.88;1763215;81;21178;-90
2022/09/02 04:31:12;;;;;;;7.75;4.62;;;;;;;5.61;100.00;98509.42;1728453;80;21158;-89
2022/09/02 04:33:38;;;;;;;10.90;5.47;;;;;;;5.68;100.00;98506.61;1748605;82;21009;-89
2022/09/02 04:36:07;;;;;;;13.45;5.12;;;;;;;5.73;100.00;98501.88;1746554;81;20989;-89
2022/09/02 04:38:34;;;;;;;10.40;4.55;;;;;;;5.75;100.00;98507.30;1764258;80;20971;-82
2022/09/02 04:41:00;;;;;;;8.13;5.30;;;;;;;5.80;100.00;98510.61;1764963;81;21141;-82
2022/09/02 04:43:26;;;;;;;8.78;4.80;;;;;;;5.83;100.00;98511.50;1764682;80;21013;-83
2022/09/02 04:45:52;;;;;;;11.20;5.25;;;;;;;5.81;100.00;98510.90;1764989;81;20888;-82
2022/09/02 04:48:18;;;;;;;8.83;5.58;;;;;;;5.84;100.00;98512.61;1764735;80;20864;-82
2022/09/02 04:50:44;;;;;;;10.53;4.90;;;;;;;5.92;100.00;98508.77;1747360;80;21664;-82
2022/09/02 04:53:10;;;;;;;6.25;4.00;;;;;;;5.96;100.00;98508.56;1757232;80;21054;-82
2022/09/02 04:55:40;;;;;;;6.55;4.20;;;;;;;6.01;100.00;98511.38;1764999;80;20962;-90
2022/09/02 04:58:07;;;;;;;13.83;6.30;;;;;;;6.06;100.00;98505.27;1700332;80;20973;-82
2022/09/02 05:00:33;;;;;;;16.67;9.55;;;;;;;6.12;100.00;98507.00;1760561;80;21284;-82
2022/09/02 05:02:59;;;;;;;16.23;8.63;;;;;;;6.17;100.00;98505.77;1766565;80;21152;-89
2022/09/02 05:05:25;;;;;;;27.60;7.95;;;;;;;6.19;100.00;98503.66;1771381;80;21138;-88
2022/09/02 05:07:54;;;;;;;10.15;6.85;;;;;;;6.21;100.00;98498.31;1752635;80;21012;-90
2022/09/02 05:10:19;;;;;;;8.30;5.53;;;;;;;6.20;100.00;98499.91;1768752;80;20923;-81
2022/09/02 05:12:45;;;;;;;7.92;4.87;;;;;;;6.22;100.00;98502.63;1758863;80;20962;-89
2022/09/02 05:15:11;;;;;;;12.82;5.33;;;;;;;6.26;100.00;98502.98;1754630;80;20917;-87
2022/09/02 05:17:37;;;;;;;12.98;5.45;;;;;;;6.31;100.00;98502.25;1756462;81;21090;-82
2022/09/02 05:24:01;;;;;;;;;;;;;;;6.34;100.00;98501.27;1760665;80;21038;-82
2022/09/02 05:26:27;;;;;;;11.93;4.87;;;;;;;6.36;100.00;98497.80;1757899;80;20180;-89
2022/09/02 05:28:53;;;;;;;14.80;5.37;;;;;;;6.39;100.00;98501.34;1756265;80;21008;-90
2022/09/02 05:31:20;;;;;;;11.63;5.25;;;;;;;6.45;100.00;98493.66;1732147;80;21614;-89
2022/09/02 05:33:46;;;;;;;10.60;4.95;;;;;;;6.58;100.00;98494.40;1706795;82;21025;-90
2022/09/02 05:36:16;;;;;;;7.37;4.12;;;;;;;6.72;100.00;98501.13;1763908;80;21020;-89
2022/09/02 05:38:42;;;;;;;7.95;4.50;;;;;;;6.86;100.00;98494.91;1761303;81;20982;-82
2022/09/02 05:41:11;;;;;;;8.20;4.78;;;;;;;6.98;100.00;98494.28;1755968;81;21414;-81
2022/09/02 05:43:37;;;;;;;;;;;;;;;7.06;100.00;98484.45;1757436;81;21134;-82
2022/09/02 05:46:07;;;;;;;12.58;6.40;;;;;;;7.15;100.00;98486.20;1761401;80;20150;-82
2022/09/02 05:51:19;;;;;;;13.03;5.42;;;;;;;7.34;100.00;98486.22;1733557;82;20962;-82
2022/09/02 05:53:44;;;;;;;10.60;5.70;;;;;;;7.56;100.00;98486.27;1731755;80;20966;-89
2022/09/02 05:56:10;;;;;;;9.18;4.97;;;;;;;7.75;100.00;98480.86;1746047;80;21192;-82
2022/09/02 05:58:36;;;;;;;8.20;5.85;;;;;;;7.93;100.00;98479.20;1758308;81;20828;-82
2022/09/02 06:01:13;;;;;;;9.60;5.37;;;;;;;8.08;100.00;98481.27;1743891;79;20921;-90
2022/09/02 06:03:39;;;;;;;9.10;5.28;;;;;;;8.24;100.00;98487.66;1742829;81;21043;-81
2022/09/02 06:06:05;;;;;;;10.58;4.17;;;;;;;8.39;100.00;98484.36;1750368;79;20913;-89
2022/09/02 06:08:32;;;;;;;9.63;7.42;;;;;;;8.55;100.00;98484.80;1742290;79;39098;-81
2022/09/02 06:11:00;;;;;;;10.28;5.83;;;;;;;8.67;100.00;98485.44;1752761;79;21478;-90
2022/09/02 06:13:34;;;;;;;11.80;4.58;;;;;;;8.79;100.00;98479.86;1728870;80;21037;-82
2022/09/02 06:16:00;;;;;;;9.25;5.00;;;;;;;8.96;100.00;98479.20;1752700;80;21528;-90
2022/09/02 06:18:26;;;;;;;7.58;4.78;;;;;;;9.20;100.00;98481.02;1734820;80;21507;-90
2022/09/02 06:20:52;;;;;;;6.78;4.42;;;;;;;9.67;100.00;98484.84;1736659;80;21516;-82
2022/09/02 06:23:18;;;;;;;4.45;3.55;;;;;;;9.67;100.00;98484.84;1726983;80;20887;-82
2022/09/02 06:25:46;;;;;;;8.13;5.15;;;;;;;10.04;100.00;98488.80;1751556;80;20897;-90
2022/09/02 06:28:12;;;;;;;8.33;3.98;;;;;;;10.39;100.00;98485.43;1736205;80;21421;-82
2022/09/02 06:30:40;;;;;;;7.90;4.00;;;;;;;10.71;100.00;98487.94;1750993;80;21500;-89
2022/09/02 06:33:06;;;;;;;8.55;3.80;;;;;;;10.92;100.00;98483.34;1767691;79;21329;-82
2022/09/02 06:35:41;;;;;;;7.08;4.03;;;;;;;11.15;100.00;98484.70;1739378;80;20889;-90
2022/09/02 06:38:07;;;;;;;8.15;4.28;;;;;;;11.36;100.00;98481.42;1738059;80;21056;-83
2022/09/02 06:40:33;;;;;;;6.87;4.15;;;;;;;11.64;100.00;98484.92;1734599;80;21079;-90
2022/09/02 06:42:59;;;;;;;6.55;4.70;;;;;;;11.94;98.13;98484.03;1738893;80;21044;-90
2022/09/02 06:45:25;;;;;;;7.92;4.50;;;;;;;12.02;99.24;98478.03;1735566;80;21210;-90
2022/09/02 06:47:52;;;;;;;10.65;6.87;;;;;;;12.06;98.35;98479.11;1736809;80;20882;-83
2022/09/02 06:50:18;;;;;;;8.10;5.05;;;;;;;12.24;98.17;98480.39;1736347;80;21693;-90
2022/09/02 06:52:44;;;;;;;21.52;14.53;;;;;;;12.83;96.73;98488.20;1751897;80;21068;-89
2022/09/02 06:55:10;;;;;;;14.80;10.75;;;;;;;;;;1747014;80;21131;-82
2022/09/02 06:57:38;;;;;;;12.33;9.15;;;;;;;13.94;94.91;98491.02;1739303;80;21091;-84
2022/09/02 07:00:06;;;;;;;15.43;11.43;;;;;;;14.47;93.83;98482.20;1751295;80;21013;-83
2022/09/02 07:02:32;;;;;;;26.93;15.87;;;;;;;14.94;90.94;98485.31;1749123;80;21418;-89
2022/09/02 07:05:10;;;;;;;19.02;14.98;;;;;;;15.53;92.41;98483.78;1729907;80;21513;-91
2022/09/02 07:07:38;;;;;;;21.42;19.27;;;;;;;16.04;89.82;98477.94;1737810;81;21059;-90
2022/09/02 07:10:05;;;;;;;12.63;11.10;;;;;;;16.41;78.87;98483.75;1732099;81;21138;-89
2022/09/02 07:12:34;;;;;;;11.00;5.75;;;;;;;16.91;83.68;98476.88;1707810;81;20981;-83
2022/09/02 07:15:00;;;;;;;8.53;5.92;;;;;;;17.13;72.65;98481.57;1728397;80;28381;-83
2022/09/02 07:17:26;;;;;;;7.15;3.58;;;;;;;17.59;76.17;98477.09;1743898;80;21113;-89
2022/09/02 07:19:54;;;;;;;5.58;4.03;;;;;;;17.73;68.48;98477.85;1726291;80;21164;-90
2022/09/02 07:22:20;;;;;;;6.17;4.00;;;;;;;18.34;72.28;98475.32;1746536;80;21683;-91
2022/09/02 07:24:46;;;;;;;6.28;2.87;;;;;;;18.84;70.23;98474.94;1734611;80;21020;-83
2022/09/02 07:27:13;;;;;;;3.27;1.85;;;;;;;19.61;73.01;98476.00;1735667;79;20913;-92
2022/09/02 07:29:40;;;;;;;4.92;2.47;;;;;;;19.72;68.92;98473.93;1735318;80;21504;-83
2022/09/02 07:32:06;;;;;;;4.50;2.10;;;;;;;20.09;68.30;98469.36;1735341;80;20968;-91
2022/09/02 07:34:32;;;;;;;7.15;3.20;;;;;;;20.54;66.26;98475.91;1735519;81;21552;-84
2022/09/02 07:36:58;;;;;;;8.38;3.05;;;;;;;21.28;65.28;98467.49;1740209;80;21225;-92
2022/09/02 07:39:24;;;;;;;3.65;2.75;;;;;;;20.98;63.62;98457.11;1742826;79;20992;-91
2022/09/02 07:41:50;;;;;;;3.17;2.10;;;;;;;21.25;64.55;98457.67;1748374;80;20984;-84
2022/09/02 07:44:17;;;;;;;3.90;2.40;;;;;;;21.58;58.79;98461.25;1725844;80;20979;-84
2022/09/02 07:46:43;;;;;;;4.40;2.27;;;;;;;21.92;56.53;98455.09;1748030;80;21346;-84
2022/09/02 07:49:10;;;;;;;3.75;2.30;;;;;;;22.37;56.59;98453.61;1740923;81;21017;-90
2022/09/02 07:51:38;;;;;;;6.03;3.35;;;;;;;23.12;60.35;98453.11;1738657;80;21088;-91
2022/09/02 07:54:06;;;;;;;6.47;2.50;;;;;;;23.62;55.67;98451.16;1739636;80;25468;-91
2022/09/02 07:56:32;;;;;;;5.08;2.12;;;;;;;24.18;55.44;98446.84;1740668;80;21100;-84
2022/09/02 07:58:58;;;;;;;3.37;1.92;;;;;;;24.56;52.01;98441.20;1735235;81;21966;-84
2022/09/02 08:01:24;;;;;;;3.60;2.58;;;;;;;24.41;48.53;98435.11;1728398;79;20858;-84
2022/09/02 08:03:50;;;;;;;4.40;2.30;;;;;;;25.05;49.17;98430.19;1729635;80;21052;-84
2022/09/02 08:06:17;;;;;;;3.75;1.77;;;;;;;25.87;50.41;98432.52;1734517;80;21091;-92
2022/09/02 08:08:42;;;;;;;3.12;1.95;;;;;;;26.03;48.72;98435.95;1738102;80;20964;-90
2022/09/02 08:11:08;;;;;;;4.65;2.25;;;;;;;26.53;47.54;98424.25;1731719;81;21831;-91
2022/09/02 08:13:35;;;;;;;3.35;2.10;;;;;;;27.19;47.41;98424.13;1747759;80;20942;-91
2022/09/02 08:16:01;;;;;;;2.60;1.70;;;;;;;27.61;44.91;98428.55;1756817;79;20978;-91
2022/09/02 08:18:29;;;;;;;2.47;1.30;;;;;;;27.15;40.13;98430.82;1742740;80;21067;-85
2022/09/02 08:20:55;;;;;;;5.87;1.30;;;;;;;26.94;38.99;98423.80;1739453;79;21084;-89
2022/09/02 08:23:21;;;;;;;2.42;1.12;;;;;;;27.35;38.03;98420.34;1727701;80;21993;-84
2022/09/02 08:25:47;;;;;;;4.12;1.17;;;;;;;27.15;36.72;98414.13;1732107;80;21681;-92
2022/09/02 08:28:13;;;;;;;1.98;1.20;;;;;;;27.14;34.47;98420.29;1739947;80;20985;-92
2022/09/02 08:30:39;;;;;;;2.85;1.27;;;;;;;26.75;33.44;98421.75;1729272;81;20897;-92
2022/09/02 08:33:05;;;;;;;5.85;1.60;;;;;;;25.09;36.19;98413.03;1730598;80;21009;-85
2022/09/02 08:35:31;;;;;;;3.42;1.30;;;;;;;25.66;36.15;98425.19;1734057;81;21341;-84
2022/09/02 08:37:58;;;;;;;3.80;1.67;;;;;;;27.23;35.76;98417.20;1715889;81;20954;-91
2022/09/02 08:40:30;;;;;;;2.98;1.52;;;;;;;26.02;34.66;98414.13;1724823;80;22228;-91
2022/09/02 08:42:56;;;;;;;5.83;1.67;;;;;;;26.10;35.89;98408.91;1723342;80;21424;-85
2022/09/02 08:45:36;;;;;;;2.90;1.20;;;;;;;25.93;35.78;98413.00;1740590;80;20958;-85
2022/09/02 08:48:25;;;;;;;2.50;1.42;;;;;;;26.04;34.58;98412.57;1741629;81;21171;-85
2022/09/02 08:50:51;;;;;;;5.72;1.40;;;;;;;25.79;34.69;98410.77;1736596;80;20981;-84
2022/09/02 08:53:47;;;;;;;2.60;1.02;;;;;;;26.52;35.26;98409.34;1722890;80;21045;-84
2022/09/02 08:56:15;;;;;;;2.65;1.20;;;;;;;26.65;32.55;98407.33;1725283;80;21052;-92
2022/09/02 08:58:45;;;;;;;2.83;1.20;;;;;;;27.97;31.74;98412.98;1727815;80;22123;-84
2022/09/02 09:01:36;;;;;;;2.12;1.25;;;;;;;24.78;35.12;98416.13;1726201;80;22046;-84
2022/09/02 09:04:26;;;;;;;2.22;0.90;;;;;;;27.28;32.46;98411.31;1732391;80;21554;-84
2022/09/02 09:07:33;;;;;;;4.05;1.25;;;;;;;26.17;32.60;98404.84;1715125;80;21021;-84
2022/09/02 09:10:28;;;;;;;1.62;0.90;;;;;;;26.17;32.60;98404.84;1723206;80;21048;-91
2022/09/02 09:13:16;;;;;;;2.20;1.07;;;;;;;28.31;30.30;98404.51;1743537;80;21099;-91
2022/09/02 09:16:02;;;;;;;3.15;1.00;;;;;;;26.01;32.62;98406.38;1732760;80;22013;-84
2022/09/02 09:18:41;;;;;;;3.98;0.80;;;;;;;28.95;28.32;98396.48;1745169;80;21068;-90
2022/09/02 09:21:07;;;;;;;3.27;1.05;;;;;;;26.17;31.49;98400.69;1724636;80;21016;-84
2022/09/02 09:23:36;;;;;;;3.15;1.32;;;;;;;27.09;30.76;98398.40;1730560;80;21092;-84
2022/09/02 09:26:12;;;;;;;2.67;0.93;;;;;;;25.94;32.39;98397.94;1735537;80;21434;-90
2022/09/02 09:28:41;;;;;;;4.35;1.42;;;;;;;24.36;34.82;98399.41;1727171;81;21142;-90
2022/09/02 09:31:18;;;;;;;1.55;0.70;;;;;;;23.27;36.04;98399.84;1727179;80;21041;-84
2022/09/02 09:34:01;;;;;;;1.85;0.90;;;;;;;20.68;41.03;98401.88;1725192;81;21081;-90
2022/09/02 09:36:49;;;;;;;1.57;0.90;;;;;;;20.70;42.87;98394.11;1737685;80;21540;-91
2022/09/02 09:39:28;;;;;;;4.00;1.30;;;;;;;20.26;43.54;98398.53;1738653;80;21138;-90
2022/09/02 09:42:03;;;;;;;3.70;1.62;;;;;;;20.03;44.63;98397.21;1723477;80;21231;-91
2022/09/02 09:44:43;;;;;;;1.80;0.90;;;;;;;19.83;45.29;98392.48;1733769;80;21623;-83
2022/09/02 09:47:22;;;;;;;1.95;1.10;;;;;;;19.82;45.11;98394.97;1736497;80;21036;-83
2022/09/02 09:49:50;;;;;;;3.83;1.17;;;;;;;19.83;45.25;98397.41;1727883;80;21515;-83
2022/09/02 09:52:27;;;;;;;6.53;2.10;;;;;;;19.90;45.30;98392.17;1725164;80;21554;-91
2022/09/02 09:55:19;;;;;;;6.53;1.50;;;;;;;19.96;44.86;98388.11;1726390;80;21115;-83
2022/09/02 09:57:47;;;;;;;3.60;1.50;;;;;;;19.81;44.96;98390.04;1724627;80;21009;-83
2022/09/02 10:00:26;;;;;;;1.98;0.98;;;;;;;18.66;48.28;98394.53;1688608;80;21022;-91
2022/09/02 10:02:55;;;;;;;3.35;0.85;;;;;;;18.68;47.57;98389.52;1750420;80;21100;-90
2022/09/02 10:05:30;;;;;;;;;;;;;;;18.77;47.98;98398.55;1748054;80;21009;-83
2022/09/02 10:08:18;;;;;;;4.33;1.95;;;;;;;19.06;47.03;98391.59;1733167;80;21303;-92
2022/09/02 10:11:04;;;;;;;2.90;1.20;;;;;;;18.91;47.81;98385.23;1738494;80;21040;-90
2022/09/02 10:13:36;;;;;;;6.30;1.22;;;;;;;18.83;48.22;98379.98;1738154;80;21047;-90
2022/09/02 10:16:36;;;;;;;7.65;1.85;;;;;;;18.76;48.90;98377.72;1724900;80;21134;-90
2022/09/02 10:19:33;;;;;;;4.65;1.55;;;;;;;19.22;48.07;98377.55;1729825;80;21143;-91
2022/09/02 10:22:19;;;;;;;4.42;1.30;;;;;;;18.60;49.16;98377.94;1738745;80;21136;-84
2022/09/02 10:25:08;;;;;;;2.25;1.50;;;;;;;18.54;49.44;98375.11;1732583;80;21632;-91
2022/09/02 10:27:49;;;;;;;3.95;1.60;;;;;;;18.58;50.54;98376.90;1727015;81;21084;-91
2022/09/02 10:30:21;;;;;;;6.58;1.87;;;;;;;18.76;49.35;98370.86;1736749;80;21113;-90
2022/09/02 10:33:22;;;;;;;2.95;1.50;;;;;;;18.99;49.18;98363.81;1723417;80;21402;-83
2022/09/02 10:36:17;;;;;;;6.12;1.82;;;;;;;18.89;51.19;98377.32;1727639;80;22238;-83
2022/09/02 10:38:49;;;;;;;4.50;1.50;;;;;;;19.24;49.91;98382.17;1732002;80;21100;-84
2022/09/02 10:41:41;;;;;;;4.37;1.90;;;;;;;19.14;50.05;98373.72;1733770;80;21474;-83
2022/09/02 10:44:40;;;;;;;3.12;1.32;;;;;;;18.84;50.22;98374.73;1730736;80;21114;-90
2022/09/02 10:47:21;;;;;;;2.85;1.17;;;;;;;18.82;47.92;98377.00;1702762;81;21603;-91
2022/09/02 10:49:52;;;;;;;2.25;1.20;;;;;;;18.58;48.22;98377.47;1732101;80;21200;-83
2022/09/02 10:52:44;;;;;;;4.25;1.50;;;;;;;18.63;48.87;98378.69;1711179;82;21096;-83
2022/09/02 10:55:41;;;;;;;1.98;1.30;;;;;;;18.62;48.81;98372.93;1730072;80;21038;-90
2022/09/02 10:58:34;;;;;;;4.45;1.57;;;;;;;18.68;48.44;98370.30;1736213;80;21109;-83
2022/09/02 11:01:00;;;;;;;2.87;1.25;;;;;;;18.75;49.37;98366.51;1736521;80;21060;-83
2022/09/02 11:03:32;;;;;;;2.83;1.25;;;;;;;18.79;48.98;98368.83;1742561;80;21269;-91
2022/09/02 11:06:06;;;;;;;2.02;1.22;;;;;;;19.03;49.70;98368.88;1733537;81;21549;-83
2022/09/02 11:08:40;;;;;;;4.03;1.30;;;;;;;19.04;47.77;98374.61;1740255;80;20997;-92
2022/09/02 11:11:42;;;;;;;6.20;1.42;;;;;;;18.78;46.63;98374.65;1749100;80;21120;-83
2022/09/02 11:14:43;;;;;;;4.85;1.30;;;;;;;19.28;45.94;98365.83;1671133;84;21059;-92
2022/09/02 11:17:53;;;;;;;3.60;1.40;;;;;;;19.18;47.65;98360.69;1655992;84;21064;-92
2022/09/02 11:20:33;;;;;;;3.70;1.12;;;;;;;18.87;47.06;98363.09;1738223;80;21033;-91
2022/09/02 11:23:35;;;;;;;2.02;0.98;;;;;;;19.03;46.68;98359.27;1754588;80;21139;-88
2022/09/02 11:26:17;;;;;;;2.67;1.12;;;;;;;19.34;46.65;98354.91;1754599;80;21029;-83
2022/09/02 11:29:04;;;;;;;4.22;1.52;;;;;;;19.49;45.79;98350.24;1738598;80;21040;-83
2022/09/02 11:31:41;;;;;;;1.90;1.10;;;;;;;19.54;45.79;98350.61;1728790;80;21153;-83
2022/09/02 11:34:22;;;;;;;3.58;1.17;;;;;;;19.23;45.22;98355.84;1746184;80;21128;-83
2022/09/02 11:36:48;;;;;;;2.05;1.37;;;;;;;19.20;45.23;98354.30;1736706;80;21583;-83
2022/09/02 11:39:27;;;;;;;1.75;1.10;;;;;;;19.13;46.17;98363.03;1741129;80;20953;-83
2022/09/02 11:42:02;;;;;;;3.45;1.20;;;;;;;19.24;46.31;98360.77;1752780;80;21635;-83
2022/09/02 11:44:55;;;;;;;3.08;1.40;;;;;;;19.13;44.76;98359.72;1730494;80;22358;-84
2022/09/02 11:47:45;;;;;;;2.05;1.02;;;;;;;19.08;44.89;98368.15;1749881;80;21030;-89
2022/09/02 11:50:22;;;;;;;4.90;1.40;;;;;;;19.20;45.43;98361.16;1730281;80;21428;-83
2022/09/02 11:53:05;;;;;;;2.12;1.12;;;;;;;19.39;45.24;98350.02;1729166;80;21580;-90
2022/09/02 11:55:36;;;;;;;3.00;0.95;;;;;;;19.42;45.56;98343.88;1709306;81;21037;-83